sensor_id;sensor_type;location;lat;lon;timestamp;pressure;altitude;pressure_sealevel;temperature;humidity
55289;BME280;41154;45.394;5.734;2023-07-28T00:01:18;96611.72;;;19.63;96.39
55289;BME280;41154;45.394;5.734;2023-07-28T00:03:43;96614.28;;;19.60;98.72
55289;BME280;41154;45.394;5.734;2023-07-28T00:06:09;96617.50;;;19.70;95.39
55289;BME280;41154;45.394;5.734;2023-07-28T00:08:34;96612.22;;;19.74;94.05
55289;BME280;41154;45.394;5.734;2023-07-28T00:11:00;96629.03;;;19.67;98.30
55289;BME280;41154;45.394;5.734;2023-07-28T00:13:25;96623.72;;;19.71;96.18
55289;BME280;41154;45.394;5.734;2023-07-28T00:15:51;96632.22;;;19.69;95.11
55289;BME280;41154;45.394;5.734;2023-07-28T00:18:16;96640.22;;;19.66;97.59
55289;BME280;41154;45.394;5.734;2023-07-28T00:20:44;96634.44;;;19.58;97.96
55289;BME280;41154;45.394;5.734;2023-07-28T00:23:09;96633.28;;;19.51;99.42
55289;BME280;41154;45.394;5.734;2023-07-28T00:25:35;96631.53;;;19.37;100.00
55289;BME280;41154;45.394;5.734;2023-07-28T00:28:00;96631.88;;;19.45;97.74
55289;BME280;41154;45.394;5.734;2023-07-28T00:30:26;96638.06;;;19.28;100.00
55289;BME280;41154;45.394;5.734;2023-07-28T00:32:51;96650.72;;;19.32;99.42
55289;BME280;41154;45.394;5.734;2023-07-28T00:35:17;96654.31;;;19.59;95.62
55289;BME280;41154;45.394;5.734;2023-07-28T00:37:43;96654.94;;;19.56;96.21
55289;BME280;41154;45.394;5.734;2023-07-28T00:40:08;96653.47;;;19.58;96.91
55289;BME280;41154;45.394;5.734;2023-07-28T00:42:34;96654.44;;;19.54;96.31
55289;BME280;41154;45.394;5.734;2023-07-28T00:44:59;96667.97;;;19.36;100.00
55289;BME280;41154;45.394;5.734;2023-07-28T00:47:25;96659.00;;;19.27;100.00
55289;BME280;41154;45.394;5.734;2023-07-28T00:49:51;96655.06;;;19.51;97.58
55289;BME280;41154;45.394;5.734;2023-07-28T00:52:16;96663.88;;;19.56;97.52
55289;BME280;41154;45.394;5.734;2023-07-28T00:54:42;96666.72;;;19.43;100.00
55289;BME280;41154;45.394;5.734;2023-07-28T00:57:07;96662.06;;;19.34;100.00
55289;BME280;41154;45.394;5.734;2023-07-28T00:59:34;96670.59;;;19.42;100.00
55289;BME280;41154;45.394;5.734;2023-07-28T01:01:59;96655.16;;;19.28;100.00
55289;BME280;41154;45.394;5.734;2023-07-28T01:04:25;96654.50;;;19.22;100.00
55289;BME280;41154;45.394;5.734;2023-07-28T01:06:57;96663.06;;;19.07;100.00
55289;BME280;41154;45.394;5.734;2023-07-28T01:09:26;96660.22;;;18.81;100.00
55289;BME280;41154;45.394;5.734;2023-07-28T01:11:54;96665.03;;;18.84;100.00
55289;BME280;41154;45.394;5.734;2023-07-28T01:14:20;96658.06;;;18.69;100.00
55289;BME280;41154;45.394;5.734;2023-07-28T01:16:46;96661.16;;;18.54;100.00
55289;BME280;41154;45.394;5.734;2023-07-28T01:19:11;96665.44;;;18.46;100.00
55289;BME280;41154;45.394;5.734;2023-07-28T01:21:37;96658.63;;;18.57;100.00
55289;BME280;41154;45.394;5.734;2023-07-28T01:24:22;96648.31;;;18.99;100.00
55289;BME280;41154;45.394;5.734;2023-07-28T01:26:52;96639.22;;;18.95;100.00
55289;BME280;41154;45.394;5.734;2023-07-28T01:29:19;96638.19;;;18.82;100.00
55289;BME280;41154;45.394;5.734;2023-07-28T01:31:46;96635.31;;;18.56;100.00
55289;BME280;41154;45.394;5.734;2023-07-28T01:34:13;96633.06;;;18.81;100.00
55289;BME280;41154;45.394;5.734;2023-07-28T01:36:38;96633.16;;;18.76;100.00
55289;BME280;41154;45.394;5.734;2023-07-28T01:39:04;96637.34;;;18.50;100.00
55289;BME280;41154;45.394;5.734;2023-07-28T01:41:29;96645.19;;;18.52;100.00
55289;BME280;41154;45.394;5.734;2023-07-28T01:43:55;96650.34;;;18.31;100.00
55289;BME280;41154;45.394;5.734;2023-07-28T01:46:21;96650.00;;;18.10;100.00
55289;BME280;41154;45.394;5.734;2023-07-28T01:48:47;96652.75;;;17.96;100.00
55289;BME280;41154;45.394;5.734;2023-07-28T01:51:13;96660.22;;;17.90;100.00
55289;BME280;41154;45.394;5.734;2023-07-28T01:53:39;96658.88;;;17.88;100.00
55289;BME280;41154;45.394;5.734;2023-07-28T01:56:04;96658.88;;;18.02;100.00
55289;BME280;41154;45.394;5.734;2023-07-28T01:58:31;96652.09;;;17.90;100.00
55289;BME280;41154;45.394;5.734;2023-07-28T02:00:56;96647.81;;;17.98;100.00
55289;BME280;41154;45.394;5.734;2023-07-28T02:03:22;96656.22;;;17.74;100.00
55289;BME280;41154;45.394;5.734;2023-07-28T02:05:48;96652.13;;;17.63;100.00
55289;BME280;41154;45.394;5.734;2023-07-28T02:08:14;96632.28;;;17.76;100.00
55289;BME280;41154;45.394;5.734;2023-07-28T02:10:39;96634.50;;;17.74;100.00
55289;BME280;41154;45.394;5.734;2023-07-28T02:13:05;96640.03;;;17.83;100.00
55289;BME280;41154;45.394;5.734;2023-07-28T02:15:30;96639.00;;;17.78;100.00
55289;BME280;41154;45.394;5.734;2023-07-28T02:17:56;96634.50;;;17.74;100.00
55289;BME280;41154;45.394;5.734;2023-07-28T02:20:21;96623.34;;;17.75;100.00
55289;BME280;41154;45.394;5.734;2023-07-28T02:22:47;96632.81;;;17.64;100.00
55289;BME280;41154;45.394;5.734;2023-07-28T02:25:12;96627.81;;;17.43;100.00
55289;BME280;41154;45.394;5.734;2023-07-28T02:27:38;96636.84;;;17.53;100.00
55289;BME280;41154;45.394;5.734;2023-07-28T02:30:04;96639.25;;;17.54;100.00
55289;BME280;41154;45.394;5.734;2023-07-28T02:32:30;96642.09;;;17.49;100.00
55289;BME280;41154;45.394;5.734;2023-07-28T02:34:56;96637.06;;;17.56;100.00
55289;BME280;41154;45.394;5.734;2023-07-28T02:37:22;96636.06;;;17.38;100.00
55289;BME280;41154;45.394;5.734;2023-07-28T02:39:48;96638.34;;;17.45;100.00
55289;BME280;41154;45.394;5.734;2023-07-28T02:42:14;96629.72;;;17.43;100.00
55289;BME280;41154;45.394;5.734;2023-07-28T02:44:40;96629.44;;;17.45;100.00
55289;BME280;41154;45.394;5.734;2023-07-28T02:47:05;96637.25;;;17.46;100.00
55289;BME280;41154;45.394;5.734;2023-07-28T02:49:31;96637.19;;;17.23;100.00
55289;BME280;41154;45.394;5.734;2023-07-28T02:51:56;96643.22;;;17.20;100.00
55289;BME280;41154;45.394;5.734;2023-07-28T02:54:22;96649.94;;;17.09;100.00
55289;BME280;41154;45.394;5.734;2023-07-28T02:56:49;96645.31;;;17.10;100.00
55289;BME280;41154;45.394;5.734;2023-07-28T02:59:14;96654.38;;;17.19;100.00
55289;BME280;41154;45.394;5.734;2023-07-28T03:01:40;96646.31;;;17.41;100.00
55289;BME280;41154;45.394;5.734;2023-07-28T03:04:06;96651.09;;;17.58;100.00
55289;BME280;41154;45.394;5.734;2023-07-28T03:06:51;96647.91;;;17.56;100.00
55289;BME280;41154;45.394;5.734;2023-07-28T03:09:17;96652.09;;;17.90;100.00
55289;BME280;41154;45.394;5.734;2023-07-28T03:11:50;96662.53;;;17.83;100.00
55289;BME280;41154;45.394;5.734;2023-07-28T03:14:16;96661.06;;;17.49;100.00
55289;BME280;41154;45.394;5.734;2023-07-28T03:16:42;96662.50;;;17.33;100.00
55289;BME280;41154;45.394;5.734;2023-07-28T03:19:08;96670.03;;;17.36;100.00
55289;BME280;41154;45.394;5.734;2023-07-28T03:21:33;96659.75;;;17.47;100.00
55289;BME280;41154;45.394;5.734;2023-07-28T03:23:59;96672.00;;;17.58;100.00
55289;BME280;41154;45.394;5.734;2023-07-28T03:26:25;96661.56;;;17.51;100.00
55289;BME280;41154;45.394;5.734;2023-07-28T03:28:51;96662.44;;;17.60;100.00
55289;BME280;41154;45.394;5.734;2023-07-28T03:31:16;96666.56;;;17.72;100.00
55289;BME280;41154;45.394;5.734;2023-07-28T03:33:42;96651.72;;;17.55;100.00
55289;BME280;41154;45.394;5.734;2023-07-28T03:36:07;96657.63;;;17.43;100.00
55289;BME280;41154;45.394;5.734;2023-07-28T03:38:35;96659.66;;;17.38;100.00
55289;BME280;41154;45.394;5.734;2023-07-28T03:41:04;96663.38;;;17.42;100.00
55289;BME280;41154;45.394;5.734;2023-07-28T03:43:29;96672.31;;;17.29;100.00
55289;BME280;41154;45.394;5.734;2023-07-28T03:45:55;96676.31;;;17.59;100.00
55289;BME280;41154;45.394;5.734;2023-07-28T03:48:21;96667.53;;;17.76;100.00
55289;BME280;41154;45.394;5.734;2023-07-28T03:50:46;96676.25;;;17.87;100.00
55289;BME280;41154;45.394;5.734;2023-07-28T03:53:12;96656.47;;;18.23;100.00
55289;BME280;41154;45.394;5.734;2023-07-28T03:55:37;96665.53;;;17.95;100.00
55289;BME280;41154;45.394;5.734;2023-07-28T03:58:03;96661.16;;;17.72;100.00
55289;BME280;41154;45.394;5.734;2023-07-28T04:00:29;96666.31;;;17.82;100.00
55289;BME280;41154;45.394;5.734;2023-07-28T04:02:54;96656.38;;;17.77;100.00
55289;BME280;41154;45.394;5.734;2023-07-28T04:05:20;96654.31;;;17.60;100.00
55289;BME280;41154;45.394;5.734;2023-07-28T04:07:45;96653.34;;;17.42;100.00
55289;BME280;41154;45.394;5.734;2023-07-28T04:10:11;96663.38;;;17.42;100.00
55289;BME280;41154;45.394;5.734;2023-07-28T04:12:37;96667.50;;;17.53;100.00
55289;BME280;41154;45.394;5.734;2023-07-28T04:15:02;96663.38;;;17.42;100.00
55289;BME280;41154;45.394;5.734;2023-07-28T04:17:28;96675.22;;;17.46;100.00
55289;BME280;41154;45.394;5.734;2023-07-28T04:19:54;96673.22;;;17.66;100.00
55289;BME280;41154;45.394;5.734;2023-07-28T04:22:19;96673.91;;;17.57;100.00
55289;BME280;41154;45.394;5.734;2023-07-28T04:24:48;96675.63;;;17.67;100.00
55289;BME280;41154;45.394;5.734;2023-07-28T04:27:15;96676.84;;;17.61;100.00
55289;BME280;41154;45.394;5.734;2023-07-28T04:29:41;96673.50;;;17.78;100.00
55289;BME280;41154;45.394;5.734;2023-07-28T04:32:09;96665.50;;;18.09;100.00
55289;BME280;41154;45.394;5.734;2023-07-28T04:34:35;96658.31;;;18.13;100.00
55289;BME280;41154;45.394;5.734;2023-07-28T04:37:33;96669.34;;;17.94;100.00
55289;BME280;41154;45.394;5.734;2023-07-28T04:40:00;96665.84;;;17.80;100.00
55289;BME280;41154;45.394;5.734;2023-07-28T04:42:32;96666.16;;;17.78;100.00
55289;BME280;41154;45.394;5.734;2023-07-28T04:44:58;96660.81;;;17.87;100.00
55289;BME280;41154;45.394;5.734;2023-07-28T04:47:23;96666.53;;;17.86;100.00
55289;BME280;41154;45.394;5.734;2023-07-28T04:49:49;96660.59;;;17.98;100.00
55289;BME280;41154;45.394;5.734;2023-07-28T04:52:33;96674.34;;;18.01;100.00
55289;BME280;41154;45.394;5.734;2023-07-28T04:55:25;96680.00;;;18.27;100.00
55289;BME280;41154;45.394;5.734;2023-07-28T04:57:52;96681.16;;;18.12;100.00
55289;BME280;41154;45.394;5.734;2023-07-28T05:00:19;96688.75;;;18.02;100.00
55289;BME280;41154;45.394;5.734;2023-07-28T05:02:45;96685.78;;;18.12;100.00
55289;BME280;41154;45.394;5.734;2023-07-28T05:05:10;96688.00;;;18.10;100.00
55289;BME280;41154;45.394;5.734;2023-07-28T05:07:36;96688.13;;;18.05;100.00
55289;BME280;41154;45.394;5.734;2023-07-28T05:10:03;96692.19;;;18.16;100.00
55289;BME280;41154;45.394;5.734;2023-07-28T05:12:28;96701.09;;;18.08;100.00
55289;BME280;41154;45.394;5.734;2023-07-28T05:14:54;96690.41;;;18.11;100.00
55289;BME280;41154;45.394;5.734;2023-07-28T05:17:20;96692.31;;;18.11;100.00
55289;BME280;41154;45.394;5.734;2023-07-28T05:20:22;96693.81;;;18.17;100.00
55289;BME280;41154;45.394;5.734;2023-07-28T05:23:06;96684.97;;;18.11;100.00
55289;BME280;41154;45.394;5.734;2023-07-28T05:25:32;96688.56;;;18.21;100.00
55289;BME280;41154;45.394;5.734;2023-07-28T05:27:58;96691.59;;;18.19;100.00
55289;BME280;41154;45.394;5.734;2023-07-28T05:30:25;96689.06;;;18.23;100.00
55289;BME280;41154;45.394;5.734;2023-07-28T05:32:50;96690.38;;;18.25;100.00
55289;BME280;41154;45.394;5.734;2023-07-28T05:35:23;96687.16;;;18.23;100.00
55289;BME280;41154;45.394;5.734;2023-07-28T05:37:49;96692.94;;;18.30;100.00
55289;BME280;41154;45.394;5.734;2023-07-28T05:40:14;96702.56;;;18.14;100.00
55289;BME280;41154;45.394;5.734;2023-07-28T05:42:40;96694.19;;;18.24;100.00
55289;BME280;41154;45.394;5.734;2023-07-28T05:45:06;96694.03;;;18.07;100.00
55289;BME280;41154;45.394;5.734;2023-07-28T05:47:31;96701.34;;;18.20;100.00
55289;BME280;41154;45.394;5.734;2023-07-28T05:49:57;96701.66;;;18.41;100.00
55289;BME280;41154;45.394;5.734;2023-07-28T05:52:23;96698.38;;;18.30;100.00
55289;BME280;41154;45.394;5.734;2023-07-28T05:54:48;96700.91;;;18.27;100.00
55289;BME280;41154;45.394;5.734;2023-07-28T05:57:14;96707.66;;;18.52;100.00
55289;BME280;41154;45.394;5.734;2023-07-28T05:59:39;96712.16;;;18.79;100.00
55289;BME280;41154;45.394;5.734;2023-07-28T06:02:05;96711.03;;;18.80;100.00
55289;BME280;41154;45.394;5.734;2023-07-28T06:04:52;96705.28;;;19.04;100.00
55289;BME280;41154;45.394;5.734;2023-07-28T06:07:18;96715.25;;;19.58;100.00
55289;BME280;41154;45.394;5.734;2023-07-28T06:13:19;96717.97;;;19.58;100.00
55289;BME280;41154;45.394;5.734;2023-07-28T06:15:45;96715.22;;;19.98;100.00
55289;BME280;41154;45.394;5.734;2023-07-28T06:18:11;96709.16;;;20.45;100.00
55289;BME280;41154;45.394;5.734;2023-07-28T06:20:37;96722.31;;;20.43;100.00
55289;BME280;41154;45.394;5.734;2023-07-28T06:23:02;96732.22;;;22.37;100.00
55289;BME280;41154;45.394;5.734;2023-07-28T06:25:28;96731.38;;;21.08;100.00
55289;BME280;41154;45.394;5.734;2023-07-28T06:27:54;96726.81;;;20.47;100.00
55289;BME280;41154;45.394;5.734;2023-07-28T06:30:20;96725.66;;;20.14;100.00
55289;BME280;41154;45.394;5.734;2023-07-28T06:32:46;96734.19;;;19.72;100.00
55289;BME280;41154;45.394;5.734;2023-07-28T06:35:12;96735.44;;;19.66;100.00
55289;BME280;41154;45.394;5.734;2023-07-28T06:37:37;96754.13;;;19.50;100.00
55289;BME280;41154;45.394;5.734;2023-07-28T06:40:05;96737.50;;;19.60;100.00
55289;BME280;41154;45.394;5.734;2023-07-28T06:42:32;96747.75;;;19.95;100.00
55289;BME280;41154;45.394;5.734;2023-07-28T06:45:00;96740.03;;;19.88;100.00
55289;BME280;41154;45.394;5.734;2023-07-28T06:47:26;96738.84;;;19.71;100.00
55289;BME280;41154;45.394;5.734;2023-07-28T06:49:52;96737.78;;;19.81;100.00
55289;BME280;41154;45.394;5.734;2023-07-28T06:52:17;96744.25;;;20.29;100.00
55289;BME280;41154;45.394;5.734;2023-07-28T06:54:43;96752.06;;;20.04;100.00
55289;BME280;41154;45.394;5.734;2023-07-28T06:57:09;96748.41;;;20.18;100.00
55289;BME280;41154;45.394;5.734;2023-07-28T06:59:34;96749.53;;;20.34;100.00
55289;BME280;41154;45.394;5.734;2023-07-28T07:02:00;96749.06;;;20.41;100.00
55289;BME280;41154;45.394;5.734;2023-07-28T07:04:26;96749.22;;;20.27;100.00
55289;BME280;41154;45.394;5.734;2023-07-28T07:06:51;96743.94;;;20.31;100.00
55289;BME280;41154;45.394;5.734;2023-07-28T07:09:17;96745.22;;;20.59;100.00
55289;BME280;41154;45.394;5.734;2023-07-28T07:11:42;96749.56;;;20.60;100.00
55289;BME280;41154;45.394;5.734;2023-07-28T07:14:26;96750.19;;;21.01;100.00
55289;BME280;41154;45.394;5.734;2023-07-28T07:16:52;96753.97;;;22.33;100.00
55289;BME280;41154;45.394;5.734;2023-07-28T07:19:17;96762.75;;;25.79;100.00
55289;BME280;41154;45.394;5.734;2023-07-28T07:21:43;96782.66;;;28.61;95.65
55289;BME280;41154;45.394;5.734;2023-07-28T07:24:10;96775.19;;;29.29;85.36
55289;BME280;41154;45.394;5.734;2023-07-28T07:26:35;96772.41;;;29.26;83.60
55289;BME280;41154;45.394;5.734;2023-07-28T07:29:01;96768.84;;;30.15;78.18
55289;BME280;41154;45.394;5.734;2023-07-28T07:31:26;96766.94;;;27.85;91.04
55289;BME280;41154;45.394;5.734;2023-07-28T07:33:52;96763.06;;;29.37;80.07
55289;BME280;41154;45.394;5.734;2023-07-28T07:36:18;96762.78;;;31.92;67.74
55289;BME280;41154;45.394;5.734;2023-07-28T07:38:44;96755.63;;;31.66;68.73
55289;BME280;41154;45.394;5.734;2023-07-28T07:41:14;96753.25;;;31.53;67.83
55289;BME280;41154;45.394;5.734;2023-07-28T07:47:00;96757.22;;;31.60;69.47
55289;BME280;41154;45.394;5.734;2023-07-28T07:49:25;96759.50;;;31.07;67.43
55289;BME280;41154;45.394;5.734;2023-07-28T07:51:51;96763.56;;;31.96;68.95
55289;BME280;41154;45.394;5.734;2023-07-28T07:54:17;96751.47;;;30.88;66.97
55289;BME280;41154;45.394;5.734;2023-07-28T07:56:43;96745.03;;;30.58;70.15
55289;BME280;41154;45.394;5.734;2023-07-28T07:59:09;96747.31;;;31.98;65.64
55289;BME280;41154;45.394;5.734;2023-07-28T08:07:56;96725.53;;;31.75;65.32
55289;BME280;41154;45.394;5.734;2023-07-28T08:10:21;96731.06;;;31.64;61.99
55289;BME280;41154;45.394;5.734;2023-07-28T08:12:47;96734.97;;;32.32;63.30
55289;BME280;41154;45.394;5.734;2023-07-28T08:15:13;96738.19;;;31.40;63.75
55289;BME280;41154;45.394;5.734;2023-07-28T08:17:39;96744.38;;;32.81;59.17
55289;BME280;41154;45.394;5.734;2023-07-28T08:20:08;96737.41;;;32.15;57.88
55289;BME280;41154;45.394;5.734;2023-07-28T08:22:33;96746.88;;;32.43;57.61
55289;BME280;41154;45.394;5.734;2023-07-28T08:24:59;96743.34;;;33.31;57.94
55289;BME280;41154;45.394;5.734;2023-07-28T08:27:24;96743.13;;;32.89;61.51
55289;BME280;41154;45.394;5.734;2023-07-28T08:29:50;96756.00;;;33.36;59.33
55289;BME280;41154;45.394;5.734;2023-07-28T08:32:15;96738.28;;;34.58;52.59
55289;BME280;41154;45.394;5.734;2023-07-28T08:34:42;96741.94;;;35.95;47.71
55289;BME280;41154;45.394;5.734;2023-07-28T08:37:07;96730.22;;;30.29;58.72
55289;BME280;41154;45.394;5.734;2023-07-28T08:39:33;96730.47;;;30.79;60.77
55289;BME280;41154;45.394;5.734;2023-07-28T08:42:02;96730.59;;;31.08;60.49
55289;BME280;41154;45.394;5.734;2023-07-28T08:44:31;96735.81;;;32.14;57.57
55289;BME280;41154;45.394;5.734;2023-07-28T08:46:58;96737.53;;;33.00;54.86
55289;BME280;41154;45.394;5.734;2023-07-28T08:49:23;96733.50;;;34.59;50.58
55289;BME280;41154;45.394;5.734;2023-07-28T08:51:49;96731.56;;;29.90;64.17
55289;BME280;41154;45.394;5.734;2023-07-28T08:54:16;96740.25;;;30.59;60.24
55289;BME280;41154;45.394;5.734;2023-07-28T08:56:42;96743.28;;;29.35;62.02
55289;BME280;41154;45.394;5.734;2023-07-28T08:59:08;96742.28;;;29.99;62.08
55289;BME280;41154;45.394;5.734;2023-07-28T09:01:38;96747.66;;;31.32;60.47
55289;BME280;41154;45.394;5.734;2023-07-28T09:04:10;96749.06;;;32.95;54.74
55289;BME280;41154;45.394;5.734;2023-07-28T09:06:51;96750.34;;;33.54;53.29
55289;BME280;41154;45.394;5.734;2023-07-28T09:09:18;96751.66;;;31.60;57.27
55289;BME280;41154;45.394;5.734;2023-07-28T09:11:45;96753.81;;;30.78;62.20
55289;BME280;41154;45.394;5.734;2023-07-28T09:14:12;96753.16;;;29.33;65.00
55289;BME280;41154;45.394;5.734;2023-07-28T09:16:38;96753.44;;;28.90;65.14
55289;BME280;41154;45.394;5.734;2023-07-28T09:19:04;96766.25;;;29.43;64.46
55289;BME280;41154;45.394;5.734;2023-07-28T09:21:30;96762.25;;;31.18;59.25
55289;BME280;41154;45.394;5.734;2023-07-28T09:23:55;96760.94;;;30.87;59.45
55289;BME280;41154;45.394;5.734;2023-07-28T09:26:20;96762.00;;;31.92;58.31
55289;BME280;41154;45.394;5.734;2023-07-28T09:28:46;96764.38;;;32.04;59.24
55289;BME280;41154;45.394;5.734;2023-07-28T09:31:12;96758.00;;;33.31;54.60
55289;BME280;41154;45.394;5.734;2023-07-28T09:33:37;96763.44;;;32.75;59.72
55289;BME280;41154;45.394;5.734;2023-07-28T09:36:10;96757.06;;;32.82;57.44
55289;BME280;41154;45.394;5.734;2023-07-28T09:38:36;96751.53;;;31.02;57.69
55289;BME280;41154;45.394;5.734;2023-07-28T09:41:03;96748.50;;;30.44;60.56
55289;BME280;41154;45.394;5.734;2023-07-28T09:43:31;96742.81;;;30.23;60.92
55289;BME280;41154;45.394;5.734;2023-07-28T09:45:56;96737.31;;;31.11;60.86
55289;BME280;41154;45.394;5.734;2023-07-28T09:48:22;96736.81;;;30.10;64.99
55289;BME280;41154;45.394;5.734;2023-07-28T09:50:49;96727.38;;;29.66;65.72
55289;BME280;41154;45.394;5.734;2023-07-28T09:53:15;96720.53;;;30.64;60.89
55289;BME280;41154;45.394;5.734;2023-07-28T09:55:42;96727.50;;;31.67;65.43
55289;BME280;41154;45.394;5.734;2023-07-28T09:58:09;96723.06;;;30.98;61.27
55289;BME280;41154;45.394;5.734;2023-07-28T10:00:35;96724.25;;;29.71;65.68
55289;BME280;41154;45.394;5.734;2023-07-28T10:03:01;96725.75;;;30.14;67.08
55289;BME280;41154;45.394;5.734;2023-07-28T10:05:27;96713.22;;;30.27;63.04
55289;BME280;41154;45.394;5.734;2023-07-28T10:07:53;96719.25;;;30.43;64.41
55289;BME280;41154;45.394;5.734;2023-07-28T10:10:18;96715.00;;;30.68;63.92
55289;BME280;41154;45.394;5.734;2023-07-28T10:12:51;96718.59;;;30.05;65.79
55289;BME280;41154;45.394;5.734;2023-07-28T10:15:19;96716.38;;;31.42;67.95
55289;BME280;41154;45.394;5.734;2023-07-28T10:17:46;96711.28;;;31.84;66.75
55289;BME280;41154;45.394;5.734;2023-07-28T10:22:53;96718.91;;;29.45;66.20
55289;BME280;41154;45.394;5.734;2023-07-28T10:25:26;96712.59;;;28.69;68.24
55289;BME280;41154;45.394;5.734;2023-07-28T10:27:51;96708.25;;;27.84;70.49
55289;BME280;41154;45.394;5.734;2023-07-28T10:30:19;96704.00;;;27.64;69.91
55289;BME280;41154;45.394;5.734;2023-07-28T10:32:48;96714.66;;;29.13;70.92
55289;BME280;41154;45.394;5.734;2023-07-28T10:37:44;96707.72;;;28.93;71.81
55289;BME280;41154;45.394;5.734;2023-07-28T10:40:29;96701.94;;;28.67;72.43
55289;BME280;41154;45.394;5.734;2023-07-28T10:42:56;96697.19;;;29.43;70.91
55289;BME280;41154;45.394;5.734;2023-07-28T10:45:23;96702.84;;;29.16;75.18
55289;BME280;41154;45.394;5.734;2023-07-28T10:47:48;96700.38;;;29.45;73.04
55289;BME280;41154;45.394;5.734;2023-07-28T10:50:14;96710.63;;;29.07;69.33
55289;BME280;41154;45.394;5.734;2023-07-28T10:52:43;96711.38;;;29.00;74.56
55289;BME280;41154;45.394;5.734;2023-07-28T10:55:13;96708.53;;;28.93;74.25
55289;BME280;41154;45.394;5.734;2023-07-28T10:57:42;96704.19;;;28.58;74.56
55289;BME280;41154;45.394;5.734;2023-07-28T11:00:09;96708.25;;;28.38;72.60
55289;BME280;41154;45.394;5.734;2023-07-28T11:05:13;96698.09;;;28.76;72.09
55289;BME280;41154;45.394;5.734;2023-07-28T11:07:43;96693.41;;;28.49;77.15
55289;BME280;41154;45.394;5.734;2023-07-28T11:10:12;96686.38;;;28.56;72.00
55289;BME280;41154;45.394;5.734;2023-07-28T11:12:43;96682.09;;;28.92;69.62
55289;BME280;41154;45.394;5.734;2023-07-28T11:15:09;96680.56;;;29.84;65.75
55289;BME280;41154;45.394;5.734;2023-07-28T11:17:38;96690.56;;;29.14;69.18
55289;BME280;41154;45.394;5.734;2023-07-28T11:20:05;96686.97;;;29.47;70.01
55289;BME280;41154;45.394;5.734;2023-07-28T11:22:39;96692.38;;;29.33;74.20
55289;BME280;41154;45.394;5.734;2023-07-28T11:25:08;96695.63;;;29.42;71.41
55289;BME280;41154;45.394;5.734;2023-07-28T11:27:37;96694.81;;;29.00;70.63
55289;BME280;41154;45.394;5.734;2023-07-28T11:30:03;96697.84;;;28.92;74.09
55289;BME280;41154;45.394;5.734;2023-07-28T11:32:34;96698.22;;;29.24;70.16
55289;BME280;41154;45.394;5.734;2023-07-28T11:35:10;96698.50;;;29.56;69.66
55289;BME280;41154;45.394;5.734;2023-07-28T11:37:38;96708.63;;;29.42;67.12
55289;BME280;41154;45.394;5.734;2023-07-28T11:40:04;96704.88;;;29.64;64.82
55289;BME280;41154;45.394;5.734;2023-07-28T11:42:39;96707.84;;;29.93;68.42
55289;BME280;41154;45.394;5.734;2023-07-28T11:45:05;96706.88;;;29.67;62.95
55289;BME280;41154;45.394;5.734;2023-07-28T11:47:32;96711.50;;;28.77;66.71
55289;BME280;41154;45.394;5.734;2023-07-28T11:49:57;96710.19;;;28.37;71.71
55289;BME280;41154;45.394;5.734;2023-07-28T11:52:30;96713.53;;;28.84;69.84
55289;BME280;41154;45.394;5.734;2023-07-28T11:54:56;96721.69;;;29.07;75.35
55289;BME280;41154;45.394;5.734;2023-07-28T11:57:23;96715.25;;;29.33;76.33
55289;BME280;41154;45.394;5.734;2023-07-28T11:59:49;96714.03;;;29.27;70.67
55289;BME280;41154;45.394;5.734;2023-07-28T12:02:15;96721.88;;;28.57;73.23
55289;BME280;41154;45.394;5.734;2023-07-28T12:04:49;96703.31;;;28.84;71.96
55289;BME280;41154;45.394;5.734;2023-07-28T12:07:17;96697.13;;;28.98;68.51
55289;BME280;41154;45.394;5.734;2023-07-28T12:12:17;96684.66;;;29.15;70.28
55289;BME280;41154;45.394;5.734;2023-07-28T12:14:43;96678.81;;;28.49;74.20
55289;BME280;41154;45.394;5.734;2023-07-28T12:17:13;96679.63;;;28.19;70.60
55289;BME280;41154;45.394;5.734;2023-07-28T12:19:42;96679.41;;;28.31;74.12
55289;BME280;41154;45.394;5.734;2023-07-28T12:22:08;96680.38;;;28.80;73.20
55289;BME280;41154;45.394;5.734;2023-07-28T12:24:34;96680.34;;;28.77;79.88
55289;BME280;41154;45.394;5.734;2023-07-28T12:26:59;96675.16;;;28.72;72.22
55289;BME280;41154;45.394;5.734;2023-07-28T12:29:25;96677.28;;;28.85;78.93
55289;BME280;41154;45.394;5.734;2023-07-28T12:31:52;96674.00;;;28.73;75.97
55289;BME280;41154;45.394;5.734;2023-07-28T12:34:17;96681.22;;;28.20;74.34
55289;BME280;41154;45.394;5.734;2023-07-28T12:40:18;96685.66;;;28.28;73.45
55289;BME280;41154;45.394;5.734;2023-07-28T12:42:47;96672.75;;;28.36;71.45
55289;BME280;41154;45.394;5.734;2023-07-28T12:45:14;96682.56;;;29.01;71.81
55289;BME280;41154;45.394;5.734;2023-07-28T12:47:41;96679.38;;;28.96;68.77
55289;BME280;41154;45.394;5.734;2023-07-28T12:50:07;96677.69;;;28.54;71.69
55289;BME280;41154;45.394;5.734;2023-07-28T12:52:33;96668.38;;;28.65;73.53
55289;BME280;41154;45.394;5.734;2023-07-28T12:54:58;96676.13;;;28.56;71.07
55289;BME280;41154;45.394;5.734;2023-07-28T12:57:24;96668.34;;;28.99;75.94
55289;BME280;41154;45.394;5.734;2023-07-28T12:59:49;96677.66;;;28.84;73.64
55289;BME280;41154;45.394;5.734;2023-07-28T13:02:15;96673.22;;;28.72;72.18
55289;BME280;41154;45.394;5.734;2023-07-28T13:04:41;96667.72;;;28.76;71.05
55289;BME280;41154;45.394;5.734;2023-07-28T13:07:06;96666.44;;;28.66;71.59
55289;BME280;41154;45.394;5.734;2023-07-28T13:09:32;96670.28;;;28.27;74.67
55289;BME280;41154;45.394;5.734;2023-07-28T13:11:58;96668.00;;;28.33;70.91
55289;BME280;41154;45.394;5.734;2023-07-28T13:14:24;96666.78;;;28.30;72.36
55289;BME280;41154;45.394;5.734;2023-07-28T13:19:56;96672.94;;;28.84;74.38
55289;BME280;41154;45.394;5.734;2023-07-28T13:22:22;96664.50;;;28.70;69.40
55289;BME280;41154;45.394;5.734;2023-07-28T13:24:48;96665.91;;;28.91;71.18